createdAt,value
2019-04-06T00:02:58.283Z,123.23
2019-04-06T00:05:45.808Z,103.30
2019-04-06T00:08:33.527Z,117.57
2019-04-06T00:11:21.187Z,128.57
2019-04-06T00:13:49.609Z,128.17
2019-04-06T00:16:18.017Z,117.63
2019-04-06T00:19:05.765Z,135.20
2019-04-06T00:21:34.170Z,117.80
2019-04-06T00:24:02.568Z,156.10
2019-04-06T00:26:31.015Z,139.20
2019-04-06T00:28:59.408Z,115.97
2019-04-06T00:31:46.938Z,150.07
2019-04-06T00:36:49.459Z,138.80
2019-04-06T00:39:17.870Z,149.27
2019-04-06T00:41:46.266Z,96.50
2019-04-06T00:44:33.791Z,102.63
2019-04-06T00:47:02.186Z,107.53
2019-04-06T00:49:30.621Z,98.77
2019-04-06T00:51:59.022Z,123.20
2019-04-06T00:54:46.547Z,88.20
2019-04-06T00:57:14.941Z,88.47
2019-04-06T01:00:02.482Z,93.67
2019-04-06T01:02:42.842Z,79.63
2019-04-06T01:07:46.440Z,99.03
2019-04-06T01:10:54.769Z,78.00
2019-04-06T01:13:42.268Z,78.30
2019-04-06T01:16:29.794Z,75.93
2019-04-06T01:19:17.524Z,68.20
2019-04-06T01:21:45.933Z,58.20
2019-04-06T01:24:33.575Z,63.50
2019-04-06T01:27:21.102Z,68.83
2019-04-06T01:29:49.613Z,77.43
2019-04-06T01:32:19.647Z,88.13
2019-04-06T01:35:07.318Z,95.90
2019-04-06T01:37:54.818Z,95.77
2019-04-06T01:40:23.283Z,117.50
2019-04-06T01:42:51.628Z,119.33
2019-04-06T01:45:39.376Z,140.33
2019-04-06T01:48:07.780Z,161.07
2019-04-06T01:50:55.434Z,176.07
2019-04-06T01:53:23.837Z,174.17
2019-04-06T01:56:18.370Z,186.53
2019-04-06T01:58:41.477Z,167.57
2019-04-06T02:01:25.957Z,181.93
2019-04-06T02:04:13.607Z,163.97
2019-04-06T02:06:42.280Z,175.73
2019-04-06T02:09:10.688Z,198.43
2019-04-06T02:11:39.090Z,184.60
2019-04-06T02:14:26.748Z,186.80
2019-04-06T02:16:55.211Z,187.20
2019-04-06T02:19:42.932Z,193.80
2019-04-06T02:22:11.321Z,182.30
2019-04-06T02:24:58.840Z,222.43
2019-04-06T02:27:27.293Z,198.53
2019-04-06T02:30:34.056Z,202.37
2019-04-06T02:33:21.656Z,201.63
2019-04-06T02:36:09.174Z,164.57
2019-04-06T02:41:45.778Z,188.70
2019-04-06T02:44:33.294Z,199.70
2019-04-06T02:47:21.046Z,190.23
2019-04-06T02:49:49.440Z,186.93
2019-04-06T02:52:37.091Z,184.87
2019-04-06T02:55:45.415Z,172.00
2019-04-06T02:58:33.070Z,173.80
2019-04-06T03:01:20.587Z,173.87
2019-04-06T03:04:08.244Z,153.13
2019-04-06T03:06:36.653Z,171.93
2019-04-06T03:09:45.222Z,172.27
2019-04-06T03:12:32.753Z,177.20
2019-04-06T03:18:09.471Z,170.43
2019-04-06T03:20:57.115Z,174.53
2019-04-06T03:23:51.536Z,180.10
2019-04-06T03:26:14.788Z,192.20
2019-04-06T03:29:02.408Z,194.80
2019-04-06T03:31:30.774Z,173.53
2019-04-06T03:34:21.245Z,253.77
2019-04-06T03:36:48.793Z,211.10
2019-04-06T03:39:36.445Z,230.23
2019-04-06T03:42:04.860Z,252.03
2019-04-06T03:44:33.252Z,188.40
2019-04-06T03:47:21.043Z,224.20
2019-04-06T03:50:08.850Z,207.83
2019-04-06T03:52:56.508Z,168.67
2019-04-06T03:55:44.157Z,175.60
2019-04-06T03:58:12.690Z,204.90
2019-04-06T04:01:00.343Z,192.40
2019-04-06T04:03:47.868Z,166.70
2019-04-06T04:06:16.266Z,152.67
2019-04-06T04:08:44.680Z,159.73
2019-04-06T04:11:32.195Z,158.27
2019-04-06T04:14:19.855Z,158.13
2019-04-06T04:16:48.290Z,165.20
2019-04-06T04:19:35.911Z,159.83
2019-04-06T04:22:23.569Z,167.07
2019-04-06T04:24:51.971Z,154.70
2019-04-06T04:32:52.629Z,158.77
2019-04-06T04:35:40.183Z,149.00
2019-04-06T04:38:08.547Z,151.90
2019-04-06T04:40:56.196Z,145.43
2019-04-06T04:43:43.851Z,161.13
2019-04-06T04:46:12.256Z,139.00
2019-04-06T04:48:40.993Z,136.97
2019-04-06T04:53:57.177Z,147.30
2019-04-06T04:56:26.952Z,133.73
2019-04-06T04:59:14.613Z,156.33
2019-04-06T05:07:04.971Z,160.00
2019-04-06T05:09:52.716Z,165.03
2019-04-06T05:12:40.385Z,135.57
2019-04-06T05:15:47.374Z,131.00
2019-04-06T05:18:15.920Z,132.53
2019-04-06T05:20:45.900Z,142.43
2019-04-06T05:31:16.114Z,136.20
2019-04-06T05:34:03.777Z,118.03
2019-04-06T05:36:32.181Z,128.37
2019-04-06T05:39:19.871Z,123.60
2019-04-06T05:41:50.433Z,115.43
2019-04-06T05:44:18.498Z,119.13
2019-04-06T05:46:46.856Z,116.97
2019-04-06T05:49:15.288Z,111.10
2019-04-06T05:52:03.015Z,108.07
2019-04-06T05:54:31.445Z,103.67
2019-04-06T05:56:59.858Z,97.33
2019-04-06T05:59:47.396Z,88.87
2019-04-06T06:02:15.902Z,75.00
2019-04-06T06:04:44.347Z,80.37
2019-04-06T06:07:32.041Z,69.30
2019-04-06T06:10:00.488Z,73.43
2019-04-06T06:12:48.154Z,76.50
2019-04-06T06:18:11.342Z,76.17
2019-04-06T06:20:39.831Z,73.20
2019-04-06T06:23:08.258Z,66.30
2019-04-06T06:25:55.982Z,64.93
2019-04-06T06:30:58.618Z,70.73
2019-04-06T06:33:28.626Z,74.37
2019-04-06T06:36:18.050Z,80.93
2019-04-06T06:39:05.716Z,83.73
2019-04-06T06:41:34.300Z,83.23
2019-04-06T06:44:02.679Z,83.53
2019-04-06T06:46:50.234Z,84.33
2019-04-06T06:49:38.062Z,88.53
2019-04-06T06:52:06.481Z,84.93
2019-04-06T06:54:54.163Z,85.83
2019-04-06T06:57:22.785Z,86.97
2019-04-06T06:59:52.722Z,84.43
2019-04-06T07:02:40.416Z,76.73
2019-04-06T07:05:28.196Z,79.53
2019-04-06T07:07:56.635Z,71.80
2019-04-06T07:10:25.082Z,82.33
2019-04-06T07:12:53.519Z,74.50
2019-04-06T07:17:55.582Z,83.77
2019-04-06T07:20:24.042Z,76.17
2019-04-06T07:23:11.600Z,78.47
2019-04-06T07:25:40.118Z,84.10
2019-04-06T07:28:37.044Z,82.93
2019-04-06T07:31:17.125Z,73.85
2019-04-06T07:33:45.539Z,72.27
2019-04-06T07:36:13.998Z,77.93
2019-04-06T07:38:42.539Z,76.53
2019-04-06T07:41:12.572Z,71.33
2019-04-06T07:43:41.005Z,77.90
2019-04-06T07:51:37.563Z,76.60
2019-04-06T07:54:25.332Z,77.40
2019-04-06T07:56:53.746Z,71.80
2019-04-06T08:04:50.484Z,72.40
2019-04-06T08:07:38.038Z,71.77
2019-04-06T08:10:46.408Z,73.10
2019-04-06T08:13:33.946Z,75.93
2019-04-06T08:18:36.852Z,74.10
2019-04-06T08:21:24.635Z,73.30
2019-04-06T08:23:53.049Z,66.17
2019-04-06T08:26:40.643Z,68.40
2019-04-06T08:29:09.075Z,67.03
2019-04-06T08:31:37.546Z,66.93
2019-04-06T08:34:06.051Z,67.97
2019-04-06T08:36:53.763Z,79.00
2019-04-06T08:39:22.205Z,71.03
2019-04-06T08:41:50.654Z,72.63
2019-04-06T08:52:35.159Z,67.30
2019-04-06T08:55:43.494Z,69.40
2019-04-06T08:58:31.044Z,69.07
2019-04-06T09:01:18.843Z,70.40
2019-04-06T09:03:47.288Z,70.10
2019-04-06T09:06:15.714Z,61.60
2019-04-06T09:08:44.413Z,63.33
2019-04-06T09:11:33.422Z,57.27
2019-04-06T09:14:20.973Z,60.63
2019-04-06T09:16:49.407Z,59.57
2019-04-06T09:19:17.814Z,54.47
2019-04-06T09:22:05.642Z,56.77
2019-04-06T09:24:34.149Z,52.97
2019-04-06T09:27:02.701Z,58.17
2019-04-06T09:29:32.867Z,55.40
2019-04-06T09:32:01.365Z,57.17
2019-04-06T09:37:17.224Z,54.40
2019-04-06T09:39:45.794Z,56.10
2019-04-06T09:45:08.465Z,58.20
2019-04-06T09:50:31.296Z,57.77
2019-04-06T09:53:18.893Z,54.30
2019-04-06T10:01:39.825Z,66.53
2019-04-06T10:04:46.650Z,65.20
2019-04-06T10:07:34.465Z,60.80
2019-04-06T10:13:30.294Z,57.17
2019-04-06T10:16:18.146Z,58.53
2019-04-06T10:19:05.687Z,56.27
2019-04-06T10:21:53.260Z,59.63
2019-04-06T10:30:15.616Z,62.47
2019-04-06T10:33:03.190Z,61.77
2019-04-06T10:35:50.712Z,71.13
2019-04-06T10:38:57.536Z,64.60
2019-04-06T10:44:39.625Z,71.47
2019-04-06T10:50:21.886Z,57.17
2019-04-06T10:53:09.584Z,58.40
2019-04-06T10:55:57.165Z,59.20
2019-04-06T10:58:44.703Z,53.37
2019-04-06T11:01:32.333Z,58.77
2019-04-06T11:04:19.908Z,52.60
2019-04-06T11:07:07.624Z,52.60
2019-04-06T11:09:55.230Z,54.30
2019-04-06T11:12:42.799Z,56.73
2019-04-06T11:15:30.479Z,51.77
2019-04-06T11:18:18.296Z,46.97
2019-04-06T11:21:05.854Z,51.53
2019-04-06T11:23:53.555Z,52.20
2019-04-06T11:26:41.098Z,45.30
2019-04-06T11:29:28.642Z,35.40
2019-04-06T11:32:16.257Z,35.50
2019-04-06T11:35:03.814Z,28.90
2019-04-06T11:38:11.059Z,42.20
2019-04-06T11:41:17.889Z,34.53
2019-04-06T11:44:05.489Z,27.57
2019-04-06T11:46:53.177Z,30.80
2019-04-06T11:50:00.167Z,30.60
2019-04-06T11:58:17.819Z,28.00
2019-04-06T12:01:05.490Z,21.03
2019-04-06T12:04:12.385Z,26.93
2019-04-06T12:07:19.287Z,20.27
2019-04-06T12:10:06.839Z,19.13
2019-04-06T12:12:56.279Z,27.07
2019-04-06T12:18:33.026Z,28.90
2019-04-06T12:21:39.882Z,21.60
2019-04-06T12:24:27.493Z,20.13
2019-04-06T12:27:15.222Z,19.87
2019-04-06T12:30:02.877Z,25.80
2019-04-06T12:40:59.497Z,24.93
2019-04-06T12:44:06.440Z,18.00
2019-04-06T12:47:13.282Z,18.77
2019-04-06T12:52:40.273Z,16.53
2019-04-06T13:01:11.183Z,16.83
2019-04-06T13:06:53.370Z,19.00
2019-04-06T13:09:40.889Z,19.17
2019-04-06T13:12:28.563Z,14.57
2019-04-06T13:17:51.626Z,17.23
2019-04-06T13:20:39.318Z,14.43
2019-04-06T13:26:02.433Z,13.37
2019-04-06T13:28:50.227Z,10.23
2019-04-06T13:31:37.769Z,14.83
2019-04-06T13:34:25.551Z,12.93
2019-04-06T13:37:13.099Z,9.93
2019-04-06T13:40:00.642Z,13.03
2019-04-06T13:42:48.333Z,9.80
2019-04-06T13:48:31.274Z,10.80
2019-04-06T13:51:18.712Z,10.20
2019-04-06T13:54:06.569Z,15.40
2019-04-06T13:56:54.032Z,12.03
2019-04-06T14:00:00.880Z,10.50
2019-04-06T14:02:48.400Z,13.07
2019-04-06T14:05:35.920Z,12.97
2019-04-06T14:08:23.485Z,15.23
2019-04-06T14:14:05.669Z,10.83
2019-04-06T14:16:53.197Z,13.67
2019-04-06T14:19:40.715Z,10.37
2019-04-06T14:22:48.974Z,11.03
2019-04-06T14:25:36.929Z,11.63
2019-04-06T14:28:24.510Z,10.80
2019-04-06T14:31:12.085Z,18.90
2019-04-06T14:36:48.862Z,11.50
2019-04-06T14:42:15.686Z,17.33
2019-04-06T14:45:03.412Z,16.03
2019-04-06T14:47:51.354Z,17.17
2019-04-06T14:50:39.068Z,11.37
2019-04-06T14:53:27.110Z,12.70
2019-04-06T14:58:50.544Z,14.17
2019-04-06T15:01:42.369Z,18.13
2019-04-06T15:04:27.922Z,14.00
2019-04-06T15:07:15.661Z,11.87
2019-04-06T15:10:03.369Z,11.33
2019-04-06T15:12:51.133Z,15.40
2019-04-06T15:15:38.849Z,14.00
2019-04-06T15:18:26.524Z,14.20
2019-04-06T15:21:14.497Z,15.30
2019-04-06T15:24:02.497Z,10.83
2019-04-06T15:29:25.426Z,12.27
2019-04-06T15:32:13.077Z,12.20
2019-04-06T15:37:40.277Z,12.90
2019-04-06T15:43:06.806Z,10.67
2019-04-06T15:46:15.276Z,16.60
2019-04-06T15:49:02.929Z,11.03
2019-04-06T15:51:50.664Z,16.00
2019-04-06T15:54:38.170Z,10.97
2019-04-06T15:57:26.118Z,11.20
2019-04-06T16:00:13.587Z,24.33
2019-04-06T16:03:01.395Z,15.67
2019-04-06T16:05:49.037Z,11.83
2019-04-06T16:08:36.684Z,22.53
2019-04-06T16:11:24.435Z,10.77
2019-04-06T16:19:36.903Z,14.83
2019-04-06T16:25:00.177Z,16.13
2019-04-06T16:27:48.265Z,11.90
2019-04-06T16:30:56.751Z,15.90
2019-04-06T16:33:44.681Z,14.50
2019-04-06T16:41:43.204Z,17.10
2019-04-06T16:47:20.538Z,15.00
2019-04-06T16:50:08.236Z,12.07
2019-04-06T16:52:56.329Z,14.57
2019-04-06T17:03:51.406Z,17.67
2019-04-06T17:06:39.117Z,13.03
2019-04-06T17:09:47.629Z,14.03
2019-04-06T17:12:37.036Z,14.30
2019-04-06T17:15:45.786Z,13.13
2019-04-06T17:18:35.013Z,16.90
2019-04-06T17:23:58.352Z,15.23
2019-04-06T17:26:45.949Z,30.63
2019-04-06T17:29:33.954Z,35.63
2019-04-06T17:32:33.944Z,31.97
2019-04-06T17:34:59.232Z,18.50
2019-04-06T17:37:29.459Z,27.83
2019-04-06T17:40:15.028Z,20.87
2019-04-06T17:43:01.230Z,18.97
2019-04-06T17:45:47.342Z,23.03
2019-04-06T17:48:33.997Z,18.90
2019-04-06T17:51:10.168Z,20.93
2019-04-06T17:53:40.307Z,22.00
2019-04-06T17:56:19.179Z,22.87
2019-04-06T17:59:05.593Z,20.07
2019-04-06T18:01:38.474Z,21.20
2019-04-06T18:04:08.661Z,23.40
2019-04-06T18:06:41.686Z,18.43
2019-04-06T18:09:11.851Z,18.40
2019-04-06T18:11:59.546Z,26.07
2019-04-06T18:14:28.118Z,19.73
2019-04-06T18:16:57.060Z,16.40
2019-04-06T18:19:25.984Z,17.07
2019-04-06T18:21:54.651Z,18.97
2019-04-06T18:24:23.171Z,16.57
2019-04-06T18:26:51.928Z,14.13
2019-04-06T18:29:20.634Z,19.90
2019-04-06T18:31:56.340Z,24.47
2019-04-06T18:34:25.141Z,24.73
2019-04-06T18:36:58.137Z,16.63
2019-04-06T18:39:27.763Z,19.70
2019-04-06T18:41:56.447Z,17.93
2019-04-06T18:44:25.574Z,19.03
2019-04-06T18:46:54.166Z,20.00
2019-04-06T18:49:22.822Z,30.20
2019-04-06T18:51:51.762Z,37.60
2019-04-06T18:54:20.243Z,27.33
2019-04-06T18:56:48.832Z,31.07
2019-04-06T18:59:17.449Z,33.50
2019-04-06T19:01:45.975Z,24.33
2019-04-06T19:04:14.550Z,19.80
2019-04-06T19:06:43.201Z,28.37
2019-04-06T19:09:22.466Z,24.97
2019-04-06T19:11:52.861Z,30.90
2019-04-06T19:14:12.457Z,21.00
2019-04-06T19:16:41.092Z,22.70
2019-04-06T19:19:09.529Z,24.97
2019-04-06T19:21:38.028Z,24.17
2019-04-06T19:24:06.765Z,20.60
2019-04-06T19:26:37.414Z,27.10
2019-04-06T19:29:06.075Z,22.20
2019-04-06T19:31:34.548Z,16.77
2019-04-06T19:34:03.176Z,24.13
2019-04-06T19:36:31.704Z,17.23
2019-04-06T19:39:00.619Z,21.60
2019-04-06T19:41:29.157Z,23.23
2019-04-06T19:43:58.259Z,23.77
2019-04-06T19:46:27.132Z,17.80
2019-04-06T19:48:55.667Z,23.30
2019-04-06T19:51:24.220Z,24.27
2019-04-06T19:53:52.782Z,21.87
2019-04-06T19:56:21.269Z,19.23
2019-04-06T19:58:49.980Z,22.30
2019-04-06T20:01:19.085Z,19.33
2019-04-06T20:03:47.822Z,23.03
2019-04-06T20:06:16.640Z,20.13
2019-04-06T20:08:45.190Z,18.97
2019-04-06T20:11:13.734Z,21.40
2019-04-06T20:13:42.398Z,20.83
2019-04-06T20:16:10.951Z,23.47
2019-04-06T20:18:40.012Z,23.33
2019-04-06T20:21:08.923Z,27.37
2019-04-06T20:23:38.018Z,28.30
2019-04-06T20:26:06.635Z,20.87
2019-04-06T20:28:35.495Z,25.47
2019-04-06T20:31:04.053Z,20.70
2019-04-06T20:33:32.588Z,23.90
2019-04-06T20:36:01.143Z,22.00
2019-04-06T20:38:29.942Z,18.50
2019-04-06T20:40:58.498Z,20.97
2019-04-06T20:43:27.563Z,25.60
2019-04-06T20:45:56.584Z,30.13
2019-04-06T20:48:25.166Z,21.43
2019-04-06T20:50:54.076Z,23.23
2019-04-06T20:53:22.723Z,17.77
2019-04-06T20:55:51.289Z,19.93
2019-04-06T20:58:20.363Z,20.47
2019-04-06T21:00:49.144Z,17.80
2019-04-06T21:03:17.746Z,18.57
2019-04-06T21:05:46.533Z,20.10
2019-04-06T21:08:15.579Z,15.93
2019-04-06T21:10:44.088Z,22.60
2019-04-06T21:13:12.598Z,17.33
2019-04-06T21:15:41.118Z,22.00
2019-04-06T21:18:09.999Z,15.20
2019-04-06T21:20:38.576Z,23.07
2019-04-06T21:23:07.336Z,20.47
2019-04-06T21:25:36.488Z,20.27
2019-04-06T21:28:05.327Z,19.87
2019-04-06T21:30:33.844Z,18.27
2019-04-06T21:33:02.407Z,19.23
2019-04-06T21:35:31.048Z,25.47
2019-04-06T21:38:00.797Z,18.00
2019-04-06T21:40:29.359Z,15.67
2019-04-06T21:42:57.982Z,20.83
2019-04-06T21:45:26.544Z,20.93
2019-04-06T21:47:55.123Z,18.27
2019-04-06T21:50:24.036Z,17.63
2019-04-06T21:52:52.946Z,18.03
2019-04-06T21:55:21.867Z,20.20
2019-04-06T21:57:50.903Z,21.83
2019-04-06T22:00:24.276Z,18.32
2019-04-06T22:02:52.802Z,16.13
2019-04-06T22:05:21.480Z,20.43
2019-04-06T22:07:53.571Z,16.23
2019-04-06T22:10:20.815Z,20.77
2019-04-06T22:12:49.712Z,20.20
2019-04-06T22:15:18.213Z,24.30
2019-04-06T22:17:46.762Z,16.07
2019-04-06T22:20:15.398Z,22.33
2019-04-06T22:22:44.043Z,21.93
2019-04-06T22:25:12.559Z,16.13
2019-04-06T22:27:41.100Z,16.53
2019-04-06T22:30:11.278Z,15.73
2019-04-06T22:32:40.311Z,15.93
2019-04-06T22:35:09.100Z,17.33
2019-04-06T22:37:37.644Z,18.20
2019-04-06T22:40:07.532Z,22.90
2019-04-06T22:42:36.625Z,16.27
2019-04-06T22:45:08.339Z,16.80
2019-04-06T22:47:37.130Z,20.50
2019-04-06T22:50:08.827Z,20.90
2019-04-06T22:52:37.387Z,17.40
2019-04-06T22:55:07.333Z,18.70
2019-04-06T22:57:36.129Z,19.50
2019-04-06T23:00:08.664Z,16.30
2019-04-06T23:02:55.435Z,15.23
2019-04-06T23:05:25.642Z,17.23
2019-04-06T23:07:54.183Z,18.00
2019-04-06T23:10:22.790Z,16.60
2019-04-06T23:12:51.384Z,21.30
2019-04-06T23:15:20.097Z,20.70
2019-04-06T23:17:48.729Z,22.70
2019-04-06T23:20:17.441Z,20.13
2019-04-06T23:22:46.191Z,27.80
2019-04-06T23:25:15.004Z,20.40
2019-04-06T23:27:43.505Z,22.43
2019-04-06T23:30:12.275Z,21.30
2019-04-06T23:32:41.119Z,17.20
2019-04-06T23:35:10.407Z,22.13
2019-04-06T23:37:39.189Z,16.67
2019-04-06T23:40:08.018Z,22.93
2019-04-06T23:42:36.651Z,20.70
2019-04-06T23:45:07.009Z,20.33
2019-04-06T23:47:36.087Z,22.93
2019-04-06T23:50:06.728Z,21.90
2019-04-06T23:52:35.448Z,23.43
2019-04-06T23:55:05.155Z,24.07
2019-04-06T23:57:33.663Z,16.37
